createdAt,value
2022-11-29T00:01:31.829Z,101137.72
2022-11-29T00:03:59.362Z,101138.38
2022-11-29T00:06:31.735Z,101141.13
2022-11-29T00:09:01.013Z,101139.66
2022-11-29T00:11:49.312Z,101146.59
2022-11-29T00:14:17.695Z,101153.25
2022-11-29T00:16:44.565Z,101150.84
2022-11-29T00:19:12.725Z,101152.59
2022-11-29T00:21:39.325Z,101160.38
2022-11-29T00:24:06.522Z,101156.81
2022-11-29T00:26:33.428Z,101162.78
2022-11-29T00:28:59.971Z,101167.19
2022-11-29T00:31:30.533Z,101159.88
2022-11-29T00:33:59.286Z,101164.34
2022-11-29T00:36:26.065Z,101163.56
2022-11-29T00:38:53.076Z,101165.50
2022-11-29T00:41:20.260Z,101168.75
2022-11-29T00:43:47.685Z,101168.75
2022-11-29T00:46:14.228Z,101167.75
2022-11-29T00:48:40.858Z,101167.75
2022-11-29T00:51:08.416Z,101168.88
2022-11-29T00:53:35.829Z,101168.22
2022-11-29T00:56:03.183Z,101166.59
2022-11-29T00:58:30.235Z,101172.06
2022-11-29T01:00:57.016Z,101168.53
2022-11-29T01:03:24.570Z,101177.91
2022-11-29T01:05:51.299Z,101175.31
2022-11-29T01:08:18.448Z,101178.72
2022-11-29T01:10:45.138Z,101177.06
2022-11-29T01:13:12.149Z,101166.59
2022-11-29T01:15:38.779Z,101186.47
2022-11-29T01:18:05.663Z,101182.78
2022-11-29T01:20:32.294Z,101187.00
2022-11-29T01:22:59.053Z,101189.56
2022-11-29T01:25:26.059Z,101192.81
2022-11-29T01:27:52.807Z,101191.22
2022-11-29T01:30:19.520Z,101193.81
2022-11-29T01:32:46.211Z,101191.06
2022-11-29T01:35:12.788Z,101177.28
2022-11-29T01:37:39.348Z,101188.47
2022-11-29T01:40:06.769Z,101186.03
2022-11-29T01:42:33.439Z,101186.19
2022-11-29T01:45:28.035Z,101192.16
2022-11-29T01:47:58.183Z,101192.31
2022-11-29T01:50:25.170Z,101195.72
2022-11-29T01:52:52.269Z,101189.72
2022-11-29T01:55:19.286Z,101198.31
2022-11-29T01:57:46.164Z,101200.25
2022-11-29T02:00:18.529Z,101201.03
2022-11-29T02:02:51.441Z,101199.25
2022-11-29T02:05:19.855Z,101202.84
2022-11-29T02:07:51.060Z,101190.84
2022-11-29T02:10:18.367Z,101199.44
2022-11-29T02:13:27.074Z,101208.97
2022-11-29T02:16:24.034Z,101210.72
2022-11-29T02:19:05.304Z,101201.19
2022-11-29T02:21:41.308Z,101198.75
2022-11-29T02:24:16.736Z,101208.13
2022-11-29T02:27:07.527Z,101205.72
2022-11-29T02:30:19.522Z,101201.47
2022-11-29T02:33:07.408Z,101206.97
2022-11-29T02:35:45.340Z,101213.91
2022-11-29T02:38:30.813Z,101207.91
2022-11-29T02:41:22.512Z,101214.06
2022-11-29T02:43:59.488Z,101211.47
2022-11-29T02:46:44.297Z,101217.44
2022-11-29T02:49:41.791Z,101219.91
2022-11-29T02:52:18.364Z,101226.69
2022-11-29T02:54:54.025Z,101228.47
2022-11-29T02:57:29.511Z,101230.94
2022-11-29T03:00:07.903Z,101229.94
2022-11-29T03:02:59.944Z,101233.34
2022-11-29T03:05:35.454Z,101238.41
2022-11-29T03:08:20.114Z,101238.53
2022-11-29T03:10:56.347Z,101251.47
2022-11-29T03:14:03.234Z,101248.88
2022-11-29T03:16:43.748Z,101242.75
2022-11-29T03:19:41.191Z,101251.47
2022-11-29T03:22:19.846Z,101245.63
2022-11-29T03:25:02.734Z,101247.41
2022-11-29T03:27:39.821Z,101252.44
2022-11-29T03:30:11.290Z,101256.81
2022-11-29T03:33:09.783Z,101252.88
2022-11-29T03:35:57.716Z,101264.19
2022-11-29T03:38:35.385Z,101265.94
2022-11-29T03:41:12.046Z,101277.28
2022-11-29T03:43:45.775Z,101278.06
2022-11-29T03:46:21.502Z,101278.91
2022-11-29T03:48:59.409Z,101279.22
2022-11-29T03:51:39.867Z,101278.50
2022-11-29T03:54:22.016Z,101282.06
2022-11-29T03:56:49.064Z,101281.53
2022-11-29T03:59:47.186Z,101286.03
2022-11-29T04:02:50.826Z,101287.00
2022-11-29T04:05:43.727Z,101286.19
2022-11-29T04:08:56.566Z,101288.78
2022-11-29T04:12:08.581Z,101293.94
2022-11-29T04:15:00.107Z,101297.22
2022-11-29T04:17:36.972Z,101289.59
2022-11-29T04:20:18.779Z,101295.72
2022-11-29T04:22:48.274Z,101299.13
2022-11-29T04:25:43.855Z,101301.72
2022-11-29T04:28:35.125Z,101300.91
2022-11-29T04:31:22.812Z,101301.88
2022-11-29T04:33:58.288Z,101302.28
2022-11-29T04:36:37.390Z,101299.84
2022-11-29T04:39:41.321Z,101300.81
2022-11-29T04:42:29.292Z,101302.84
2022-11-29T04:45:27.724Z,101302.03
2022-11-29T04:48:12.376Z,101306.69
2022-11-29T04:50:58.953Z,101312.94
2022-11-29T04:53:25.604Z,101313.09
2022-11-29T04:56:06.446Z,101314.06
2022-11-29T04:58:41.985Z,101318.56
2022-11-29T05:01:21.868Z,101317.34
2022-11-29T05:04:01.504Z,101321.16
2022-11-29T05:07:08.220Z,101317.75
2022-11-29T05:10:13.514Z,101330.84
2022-11-29T05:13:03.083Z,101332.19
2022-11-29T05:15:56.924Z,101330.44
2022-11-29T05:19:02.433Z,101332.91
2022-11-29T05:22:03.229Z,101332.91
2022-11-29T05:24:53.653Z,101338.88
2022-11-29T05:27:43.630Z,101340.50
2022-11-29T05:30:22.393Z,101338.59
2022-11-29T05:33:11.482Z,101340.25
2022-11-29T05:35:50.558Z,101348.13
2022-11-29T05:38:24.286Z,101346.78
2022-11-29T05:41:12.179Z,101356.28
2022-11-29T05:44:03.749Z,101359.44
2022-11-29T05:46:48.802Z,101365.72
2022-11-29T05:49:36.504Z,101368.44
2022-11-29T05:52:30.268Z,101366.78
2022-11-29T05:55:19.596Z,101368.44
2022-11-29T05:57:46.099Z,101364.75
2022-11-29T06:00:14.723Z,101370.06
2022-11-29T06:03:06.251Z,101366.28
2022-11-29T06:05:46.872Z,101365.56
2022-11-29T06:08:18.485Z,101374.03
2022-11-29T06:10:57.696Z,101380.66
2022-11-29T06:13:30.040Z,101385.03
2022-11-29T06:16:14.598Z,101376.63
2022-11-29T06:19:17.221Z,101394.81
2022-11-29T06:22:21.501Z,101398.78
2022-11-29T06:24:48.129Z,101391.97
2022-11-29T06:27:17.603Z,101406.00
2022-11-29T06:30:14.372Z,101395.91
2022-11-29T06:32:55.254Z,101398.25
2022-11-29T06:35:36.978Z,101409.53
2022-11-29T06:38:20.913Z,101408.84
2022-11-29T06:40:48.044Z,101412.63
2022-11-29T06:43:14.975Z,101411.13
2022-11-29T06:45:48.446Z,101423.38
2022-11-29T06:48:30.327Z,101423.91
2022-11-29T06:50:59.577Z,101434.94
2022-11-29T06:53:57.887Z,101432.22
2022-11-29T06:56:33.392Z,101427.84
2022-11-29T06:59:29.788Z,101434.78
2022-11-29T07:02:05.953Z,101434.78
2022-11-29T07:04:46.397Z,101442.84
2022-11-29T07:07:20.817Z,101443.78
2022-11-29T07:09:51.643Z,101448.41
2022-11-29T07:12:18.793Z,101459.53
2022-11-29T07:14:46.135Z,101462.69
2022-11-29T07:17:35.726Z,101467.84
2022-11-29T07:20:15.583Z,101466.88
2022-11-29T07:22:57.299Z,101475.19
2022-11-29T07:25:37.500Z,101470.84
2022-11-29T07:28:22.090Z,101475.06
2022-11-29T07:31:07.776Z,101484.31
2022-11-29T07:33:58.974Z,101485.28
2022-11-29T07:36:41.193Z,101489.34
2022-11-29T07:39:28.609Z,101489.47
2022-11-29T07:42:13.607Z,101487.72
2022-11-29T07:44:50.778Z,101491.91
2022-11-29T07:47:17.590Z,101502.56
2022-11-29T07:49:44.153Z,101496.41
2022-11-29T07:52:12.590Z,101499.16
2022-11-29T07:54:40.417Z,101496.69
2022-11-29T07:57:07.175Z,101499.41
2022-11-29T07:59:33.784Z,101503.22
2022-11-29T08:02:00.904Z,101502.13
2022-11-29T08:04:27.645Z,101501.03
2022-11-29T08:06:54.210Z,101506.91
2022-11-29T08:09:20.780Z,101505.53
2022-11-29T08:11:48.968Z,101512.72
2022-11-29T08:14:15.618Z,101515.97
2022-11-29T08:16:42.257Z,101524.72
2022-11-29T08:19:08.972Z,101520.06
2022-11-29T08:21:35.625Z,101521.72
2022-11-29T08:24:02.402Z,101527.72
2022-11-29T08:26:31.897Z,101524.06
2022-11-29T08:28:58.744Z,101523.69
2022-11-29T08:31:26.138Z,101523.69
2022-11-29T08:33:52.810Z,101524.72
2022-11-29T08:36:20.603Z,101518.75
2022-11-29T08:38:47.430Z,101521.09
2022-11-29T08:41:17.117Z,101530.63
2022-11-29T08:43:44.735Z,101528.41
2022-11-29T08:46:18.199Z,101522.25
2022-11-29T08:48:46.168Z,101532.34
2022-11-29T08:51:13.047Z,101535.63
2022-11-29T08:53:42.904Z,101542.56
2022-11-29T08:57:04.275Z,101546.13
2022-11-29T08:59:01.617Z,101547.03
2022-11-29T09:01:29.375Z,101540.25
2022-11-29T09:04:07.240Z,101548.09
2022-11-29T09:06:38.924Z,101543.75
2022-11-29T09:09:05.812Z,101555.06
2022-11-29T09:11:33.996Z,101563.50
2022-11-29T09:14:04.029Z,101559.72
2022-11-29T09:16:33.982Z,101563.53
2022-11-29T09:19:00.969Z,101557.28
2022-11-29T09:21:30.774Z,101564.50
2022-11-29T09:23:59.898Z,101558.75
2022-11-29T09:26:29.293Z,101563.81
2022-11-29T09:28:58.318Z,101568.31
2022-11-29T09:31:25.099Z,101574.28
2022-11-29T09:33:52.208Z,101572.66
2022-11-29T09:36:22.621Z,101572.41
2022-11-29T09:38:53.289Z,101583.03
2022-11-29T09:41:50.693Z,101576.47
2022-11-29T09:44:36.526Z,101579.34
2022-11-29T09:47:06.058Z,101580.03
2022-11-29T09:49:54.625Z,101581.66
2022-11-29T09:52:39.790Z,101586.03
2022-11-29T09:55:39.191Z,101588.06
2022-11-29T09:58:12.126Z,101588.09
2022-11-29T10:00:59.981Z,101593.13
2022-11-29T10:03:34.109Z,101586.72
2022-11-29T10:06:17.714Z,101594.63
2022-11-29T10:08:51.860Z,101596.28
2022-11-29T10:11:25.096Z,101598.59
2022-11-29T10:14:00.403Z,101595.88
2022-11-29T10:16:36.129Z,101601.84
2022-11-29T10:19:15.269Z,101601.06
2022-11-29T10:21:45.567Z,101601.72
2022-11-29T10:24:20.336Z,101597.91
2022-11-29T10:26:46.994Z,101595.88
2022-11-29T10:29:15.819Z,101594.78
2022-11-29T10:31:49.495Z,101590.16
2022-11-29T10:34:20.016Z,101589.09
2022-11-29T10:36:55.747Z,101596.69
2022-11-29T10:39:25.253Z,101592.75
2022-11-29T10:42:02.541Z,101599.00
2022-11-29T10:44:32.083Z,101599.00
2022-11-29T10:47:05.499Z,101603.50
2022-11-29T10:49:38.030Z,101602.44
2022-11-29T10:52:05.786Z,101605.44
2022-11-29T10:54:40.325Z,101605.72
2022-11-29T10:57:19.353Z,101606.25
2022-11-29T11:00:09.752Z,101600.66
2022-11-29T11:02:37.043Z,101602.97
2022-11-29T11:05:12.449Z,101607.19
2022-11-29T11:07:39.158Z,101594.41
2022-11-29T11:10:21.908Z,101597.66
2022-11-29T11:13:07.110Z,101600.41
2022-11-29T11:15:34.099Z,101597.53
2022-11-29T11:18:05.051Z,101599.00
2022-11-29T11:20:35.020Z,101596.31
2022-11-29T11:23:08.012Z,101596.16
2022-11-29T11:25:39.621Z,101591.53
2022-11-29T11:28:20.577Z,101592.91
2022-11-29T11:30:53.703Z,101591.50
2022-11-29T11:33:25.491Z,101592.91
2022-11-29T11:36:15.330Z,101595.19
2022-11-29T11:38:50.011Z,101588.13
2022-11-29T11:41:51.154Z,101600.91
2022-11-29T11:44:49.468Z,101596.16
2022-11-29T11:47:27.981Z,101605.53
2022-11-29T11:50:08.004Z,101603.25
2022-11-29T11:52:58.394Z,101604.34
2022-11-29T11:55:30.645Z,101606.25
2022-11-29T11:58:22.460Z,101606.09
2022-11-29T12:01:14.603Z,101604.19
2022-11-29T12:03:56.890Z,101609.22
2022-11-29T12:06:54.679Z,101608.78
2022-11-29T12:09:33.351Z,101621.63
2022-11-29T12:12:10.474Z,101620.41
2022-11-29T12:15:01.202Z,101615.38
2022-11-29T12:17:44.307Z,101618.22
2022-11-29T12:20:31.509Z,101623.81
2022-11-29T12:23:13.702Z,101624.63
2022-11-29T12:25:50.622Z,101632.09
2022-11-29T12:28:20.833Z,101634.59
2022-11-29T12:31:15.082Z,101635.25
2022-11-29T12:33:41.823Z,101636.88
2022-11-29T12:36:41.110Z,101636.75
2022-11-29T12:39:13.729Z,101641.53
2022-11-29T12:41:54.391Z,101640.97
2022-11-29T12:44:48.188Z,101645.47
2022-11-29T12:47:55.262Z,101649.44
2022-11-29T12:50:21.783Z,101649.03
2022-11-29T12:52:51.238Z,101649.56
2022-11-29T12:55:24.617Z,101649.44
2022-11-29T12:57:51.121Z,101647.22
2022-11-29T13:00:21.236Z,101646.81
2022-11-29T13:02:53.210Z,101639.59
2022-11-29T13:05:38.974Z,101638.50
2022-11-29T13:08:47.297Z,101639.59
2022-11-29T13:11:25.296Z,101641.94
2022-11-29T13:14:13.521Z,101639.44
2022-11-29T13:16:56.382Z,101646.66
2022-11-29T13:19:28.667Z,101645.69
2022-11-29T13:22:07.343Z,101646.78
2022-11-29T13:24:43.375Z,101650.34
2022-11-29T13:27:34.573Z,101653.75
2022-11-29T13:30:02.014Z,101652.66
2022-11-29T13:32:34.825Z,101654.16
2022-11-29T13:35:27.248Z,101650.63
2022-11-29T13:38:25.598Z,101643.00
2022-11-29T13:41:01.733Z,101643.69
2022-11-29T13:43:45.739Z,101645.03
2022-11-29T13:46:42.275Z,101643.94
2022-11-29T13:49:21.386Z,101634.25
2022-11-29T13:51:48.450Z,101640.09
2022-11-29T13:54:30.814Z,101640.66
2022-11-29T13:57:05.383Z,101642.00
2022-11-29T13:59:34.718Z,101645.41
2022-11-29T14:02:02.325Z,101651.13
2022-11-29T14:04:39.172Z,101651.94
2022-11-29T14:07:12.596Z,101648.81
2022-11-29T14:09:51.534Z,101653.03
2022-11-29T14:12:37.707Z,101654.53
2022-11-29T14:15:24.657Z,101653.72
2022-11-29T14:17:56.692Z,101662.16
2022-11-29T14:20:23.339Z,101662.72
2022-11-29T14:23:05.234Z,101664.31
2022-11-29T14:26:03.024Z,101673.19
2022-11-29T14:28:29.523Z,101671.59
2022-11-29T14:31:07.142Z,101669.78
2022-11-29T14:33:37.416Z,101670.50
2022-11-29T14:36:18.853Z,101674.69
2022-11-29T14:39:05.042Z,101673.75
2022-11-29T14:41:48.006Z,101674.97
2022-11-29T14:44:24.354Z,101672.69
2022-11-29T14:47:01.666Z,101674.19
2022-11-29T14:49:29.176Z,101670.50
2022-11-29T14:52:13.540Z,101673.19
2022-11-29T14:55:02.689Z,101676.63
2022-11-29T14:57:47.305Z,101678.38
2022-11-29T15:00:28.384Z,101680.16
2022-11-29T15:03:09.818Z,101685.63
2022-11-29T15:05:40.807Z,101683.16
2022-11-29T15:08:32.319Z,101677.19
2022-11-29T15:11:11.402Z,101685.91
2022-11-29T15:13:51.113Z,101690.28
2022-11-29T15:16:50.262Z,101689.47
2022-11-29T15:19:16.849Z,101675.69
2022-11-29T15:22:14.845Z,101678.56
2022-11-29T15:24:52.917Z,101684.81
2022-11-29T15:27:20.030Z,101685.09
2022-11-29T15:29:49.531Z,101682.66
2022-11-29T15:32:28.338Z,101698.34
2022-11-29T15:34:56.418Z,101703.53
2022-11-29T15:37:31.854Z,101700.13
2022-11-29T15:40:05.554Z,101707.91
2022-11-29T15:42:50.657Z,101705.56
2022-11-29T15:45:26.695Z,101707.47
2022-11-29T15:47:53.576Z,101708.56
2022-11-29T15:50:31.186Z,101707.91
2022-11-29T15:53:04.934Z,101708.72
2022-11-29T15:55:33.155Z,101711.56
2022-11-29T15:58:08.493Z,101710.75
2022-11-29T16:00:37.269Z,101715.00
2022-11-29T16:03:05.112Z,101715.81
2022-11-29T16:05:37.392Z,101720.16
2022-11-29T16:08:08.725Z,101713.22
2022-11-29T16:11:02.839Z,101713.50
2022-11-29T16:13:39.292Z,101709.41
2022-11-29T16:16:07.987Z,101719.66
2022-11-29T16:18:36.118Z,101717.06
2022-11-29T16:21:07.723Z,101718.00
2022-11-29T16:23:36.306Z,101722.22
2022-11-29T16:26:22.442Z,101717.06
2022-11-29T16:28:52.637Z,101719.66
2022-11-29T16:31:24.896Z,101722.34
2022-11-29T16:33:52.695Z,101724.94
2022-11-29T16:36:27.774Z,101730.13
2022-11-29T16:39:22.679Z,101727.53
2022-11-29T16:42:30.136Z,101724.13
2022-11-29T16:45:23.448Z,101731.88
2022-11-29T16:47:53.026Z,101731.78
2022-11-29T16:50:22.751Z,101727.41
2022-11-29T16:52:54.976Z,101737.63
2022-11-29T16:55:22.935Z,101732.44
2022-11-29T16:57:49.669Z,101735.72
2022-11-29T17:00:23.931Z,101727.78
2022-11-29T17:02:50.629Z,101728.75
2022-11-29T17:05:17.452Z,101725.34
2022-11-29T17:07:44.328Z,101733.13
2022-11-29T17:10:15.402Z,101730.38
2022-11-29T17:12:47.779Z,101731.22
2022-11-29T17:15:14.922Z,101738.97
2022-11-29T17:17:46.431Z,101745.00
2022-11-29T17:20:13.972Z,101749.22
2022-11-29T17:22:41.409Z,101742.13
2022-11-29T17:25:09.105Z,101750.59
2022-11-29T17:27:35.951Z,101750.44
2022-11-29T17:30:04.666Z,101746.22
2022-11-29T17:32:34.547Z,101751.25
2022-11-29T17:35:01.270Z,101747.84
2022-11-29T17:37:29.951Z,101750.44
2022-11-29T17:39:56.980Z,101746.34
2022-11-29T17:42:23.900Z,101752.50
2022-11-29T17:44:50.792Z,101749.22
2022-11-29T17:47:17.471Z,101741.56
2022-11-29T17:49:44.776Z,101757.25
2022-11-29T17:52:11.717Z,101755.63
2022-11-29T17:54:38.567Z,101764.22
2022-11-29T17:57:06.083Z,101754.69
2022-11-29T17:59:32.944Z,101764.34
2022-11-29T18:01:59.881Z,101763.69
2022-11-29T18:04:26.692Z,101769.81
2022-11-29T18:06:53.389Z,101763.78
2022-11-29T18:09:20.248Z,101775.13
2022-11-29T18:11:49.691Z,101779.50
2022-11-29T18:14:20.060Z,101782.91
2022-11-29T18:16:46.865Z,101781.09
2022-11-29T18:19:17.279Z,101782.75
2022-11-29T18:21:44.178Z,101787.13
2022-11-29T18:24:11.459Z,101790.38
2022-11-29T18:26:38.749Z,101788.47
2022-11-29T18:29:06.733Z,101787.69
2022-11-29T18:31:36.289Z,101784.25
2022-11-29T18:34:09.919Z,101784.25
2022-11-29T18:36:46.427Z,101791.06
2022-11-29T18:39:18.993Z,101790.25
2022-11-29T18:41:48.076Z,101798.97
2022-11-29T18:44:16.482Z,101800.88
2022-11-29T18:46:44.998Z,101800.88
2022-11-29T18:49:14.492Z,101802.53
2022-11-29T18:51:44.623Z,101801.72
2022-11-29T18:54:12.569Z,101800.22
2022-11-29T18:56:40.687Z,101811.50
2022-11-29T18:59:13.756Z,101803.22
2022-11-29T19:01:42.841Z,101816.97
2022-11-29T19:04:15.104Z,101810.28
2022-11-29T19:06:42.767Z,101814.66
2022-11-29T19:09:23.916Z,101814.66
2022-11-29T19:11:50.914Z,101815.06
2022-11-29T19:14:18.442Z,101817.91
2022-11-29T19:16:47.181Z,101811.22
2022-11-29T19:19:13.875Z,101817.75
2022-11-29T19:21:41.179Z,101819.53
2022-11-29T19:24:17.594Z,101821.53
2022-11-29T19:26:46.169Z,101821.41
2022-11-29T19:29:13.930Z,101817.31
2022-11-29T19:31:40.952Z,101821.66
2022-11-29T19:34:07.839Z,101828.63
2022-11-29T19:36:37.086Z,101834.06
2022-11-29T19:39:03.847Z,101839.72
2022-11-29T19:41:32.982Z,101840.03
2022-11-29T19:44:01.795Z,101836.16
2022-11-29T19:46:34.716Z,101849.50
2022-11-29T19:49:02.755Z,101844.56
2022-11-29T19:51:30.249Z,101848.50
2022-11-29T19:53:59.986Z,101846.31
2022-11-29T19:56:28.160Z,101846.72
2022-11-29T19:58:55.406Z,101855.16
2022-11-29T20:01:25.261Z,101859.63
2022-11-29T20:03:52.730Z,101861.41
2022-11-29T20:06:19.893Z,101858.13
2022-11-29T20:08:47.341Z,101852.94
2022-11-29T20:11:19.673Z,101852.00
2022-11-29T20:13:52.681Z,101854.03
2022-11-29T20:16:19.480Z,101860.41
2022-11-29T20:18:51.593Z,101865.97
2022-11-29T20:21:28.584Z,101861.97
2022-11-29T20:24:03.688Z,101872.69
2022-11-29T20:26:32.960Z,101864.38
2022-11-29T20:29:00.045Z,101862.19
2022-11-29T20:31:27.043Z,101870.75
2022-11-29T20:33:57.403Z,101864.75
2022-11-29T20:36:47.784Z,101868.88
2022-11-29T20:39:38.344Z,101874.72
2022-11-29T20:42:23.235Z,101880.28
2022-11-29T20:44:57.323Z,101879.59
2022-11-29T20:47:53.080Z,101880.41
2022-11-29T20:50:28.985Z,101885.25
2022-11-29T20:53:43.258Z,101887.13
2022-11-29T20:56:11.370Z,101893.50
2022-11-29T20:58:38.297Z,101898.22
2022-11-29T21:01:05.570Z,101902.50
2022-11-29T21:03:32.624Z,101904.63
2022-11-29T21:06:02.625Z,101909.78
2022-11-29T21:08:29.694Z,101912.38
2022-11-29T21:11:05.550Z,101917.22
2022-11-29T21:13:32.835Z,101920.84
2022-11-29T21:16:00.275Z,101916.50
2022-11-29T21:18:28.642Z,101913.66
2022-11-29T21:21:16.655Z,101924.59
2022-11-29T21:23:58.935Z,101919.16
2022-11-29T21:26:51.673Z,101911.16
2022-11-29T21:29:21.298Z,101909.97
2022-11-29T21:31:50.823Z,101905.88
2022-11-29T21:34:17.599Z,101906.13
2022-11-29T21:36:48.739Z,101911.66
2022-11-29T21:39:16.612Z,101915.88
2022-11-29T21:41:43.232Z,101913.56
2022-11-29T21:44:10.165Z,101914.50
2022-11-29T21:46:36.933Z,101915.91
2022-11-29T21:49:04.780Z,101916.16
2022-11-29T21:51:31.417Z,101930.50
2022-11-29T21:53:58.055Z,101923.00
2022-11-29T21:56:25.018Z,101925.81
2022-11-29T21:58:51.684Z,101919.84
2022-11-29T22:01:20.564Z,101922.19
2022-11-29T22:03:47.718Z,101918.53
2022-11-29T22:06:20.481Z,101925.09
2022-11-29T22:08:48.372Z,101934.50
2022-11-29T22:11:30.885Z,101936.97
2022-11-29T22:14:16.099Z,101932.84
2022-11-29T22:16:50.198Z,101933.09
2022-11-29T22:19:20.345Z,101937.44
2022-11-29T22:21:49.482Z,101937.69
2022-11-29T22:24:18.886Z,101942.97
2022-11-29T22:26:46.105Z,101936.03
2022-11-29T22:29:16.607Z,101939.22
2022-11-29T22:31:44.935Z,101930.63
2022-11-29T22:34:11.680Z,101931.69
2022-11-29T22:36:39.018Z,101936.16
2022-11-29T22:39:07.217Z,101939.66
2022-11-29T22:41:35.828Z,101940.41
2022-11-29T22:44:03.539Z,101944.84
2022-11-29T22:46:30.528Z,101944.84
2022-11-29T22:49:00.440Z,101947.69
2022-11-29T22:51:32.697Z,101944.13
2022-11-29T22:54:04.625Z,101947.56
2022-11-29T22:56:34.448Z,101954.38
2022-11-29T22:59:01.566Z,101940.50
2022-11-29T23:01:30.739Z,101955.06
2022-11-29T23:03:59.517Z,101954.13
2022-11-29T23:06:36.870Z,101946.25
2022-11-29T23:09:25.419Z,101956.00
2022-11-29T23:11:54.248Z,101956.81
2022-11-29T23:14:22.298Z,101964.44
2022-11-29T23:16:49.554Z,101966.09
2022-11-29T23:19:16.370Z,101973.72
2022-11-29T23:21:45.532Z,101972.09
2022-11-29T23:24:12.712Z,101978.19
2022-11-29T23:26:43.590Z,101979.84
2022-11-29T23:29:13.239Z,101977.13
2022-11-29T23:31:40.264Z,101974.78
2022-11-29T23:34:07.480Z,101980.06
2022-11-29T23:36:34.824Z,101975.75
2022-11-29T23:39:01.664Z,101973.16
2022-11-29T23:41:28.252Z,101966.22
2022-11-29T23:43:55.088Z,101968.91
2022-11-29T23:46:24.048Z,101962.81
2022-11-29T23:48:51.089Z,101967.16
2022-11-29T23:51:18.280Z,101967.16
2022-11-29T23:53:46.765Z,101964.72
2022-11-29T23:56:17.837Z,101958.47
2022-11-29T23:58:45.033Z,101954.25
